createdAt,value
2023-05-20T00:01:22.118Z,12.30
2023-05-20T00:04:02.697Z,12.20
2023-05-20T00:06:50.157Z,12.20
2023-05-20T00:09:29.982Z,12.20
2023-05-20T00:12:17.124Z,12.20
2023-05-20T00:14:56.994Z,12.20
2023-05-20T00:17:44.059Z,12.10
2023-05-20T00:21:09.064Z,12.10
2023-05-20T00:23:56.037Z,12.00
2023-05-20T00:26:43.144Z,12.00
2023-05-20T00:29:23.024Z,12.10
2023-05-20T00:32:17.140Z,12.10
2023-05-20T00:35:05.030Z,12.10
2023-05-20T00:37:45.259Z,12.00
2023-05-20T00:40:32.037Z,12.00
2023-05-20T00:43:12.144Z,11.90
2023-05-20T00:46:02.129Z,11.90
2023-05-20T00:48:49.185Z,11.90
2023-05-20T00:51:36.041Z,11.90
2023-05-20T00:54:17.143Z,11.90
2023-05-20T00:57:04.129Z,11.90
2023-05-20T00:59:51.071Z,11.90
2023-05-20T01:02:31.489Z,11.90
2023-05-20T01:05:18.063Z,11.90
2023-05-20T01:08:05.339Z,11.90
2023-05-20T01:10:51.096Z,11.80
2023-05-20T01:13:40.198Z,11.80
2023-05-20T01:16:21.242Z,11.80
2023-05-20T01:19:09.203Z,11.80
2023-05-20T01:21:50.086Z,11.80
2023-05-20T01:24:37.760Z,11.70
2023-05-20T01:27:18.116Z,11.70
2023-05-20T01:30:12.076Z,11.70
2023-05-20T01:33:03.169Z,11.70
2023-05-20T01:35:43.266Z,11.60
2023-05-20T01:38:31.168Z,11.50
2023-05-20T01:41:12.379Z,11.50
2023-05-20T01:43:59.227Z,11.50
2023-05-20T01:46:40.327Z,11.50
2023-05-20T01:49:27.190Z,11.50
2023-05-20T01:52:07.332Z,11.50
2023-05-20T01:54:58.283Z,11.50
2023-05-20T01:57:38.366Z,11.50
2023-05-20T02:00:25.142Z,11.40
2023-05-20T02:03:06.336Z,11.40
2023-05-20T02:05:53.180Z,11.40
2023-05-20T02:08:40.220Z,11.40
2023-05-20T02:11:27.317Z,11.40
2023-05-20T02:14:07.449Z,11.40
2023-05-20T02:16:54.328Z,11.50
2023-05-20T02:20:08.143Z,11.50
2023-05-20T02:22:48.504Z,11.50
2023-05-20T02:25:35.414Z,11.60
2023-05-20T02:28:24.281Z,11.60
2023-05-20T02:31:26.504Z,11.60
2023-05-20T02:34:13.325Z,11.60
2023-05-20T02:37:00.150Z,11.50
2023-05-20T02:39:47.329Z,11.50
2023-05-20T02:42:27.208Z,11.60
2023-05-20T02:45:14.255Z,11.60
2023-05-20T02:47:54.222Z,11.70
2023-05-20T02:50:41.265Z,11.70
2023-05-20T02:53:21.501Z,11.70
2023-05-20T02:56:08.215Z,11.60
2023-05-20T02:58:48.664Z,11.60
2023-05-20T03:01:36.236Z,11.70
2023-05-20T03:04:16.410Z,11.70
2023-05-20T03:07:04.272Z,11.70
2023-05-20T03:09:44.347Z,11.70
2023-05-20T03:12:33.306Z,11.80
2023-05-20T03:15:13.592Z,11.80
2023-05-20T03:18:00.300Z,11.80
2023-05-20T03:20:41.721Z,11.80
2023-05-20T03:23:29.195Z,11.90
2023-05-20T03:26:09.429Z,11.90
2023-05-20T03:28:56.233Z,11.90
2023-05-20T03:31:52.604Z,12.00
2023-05-20T03:34:39.489Z,12.00
2023-05-20T03:37:20.848Z,12.10
2023-05-20T03:40:07.534Z,12.20
2023-05-20T03:42:50.085Z,12.30
2023-05-20T03:45:37.767Z,12.40
2023-05-20T03:48:24.560Z,12.50
2023-05-20T03:51:04.790Z,12.50
2023-05-20T03:53:51.536Z,12.60
2023-05-20T03:56:38.659Z,12.70
2023-05-20T03:59:18.620Z,12.70
2023-05-20T04:02:05.815Z,12.80
2023-05-20T04:04:45.505Z,12.80
2023-05-20T04:07:33.841Z,12.90
2023-05-20T04:10:15.618Z,13.00
2023-05-20T04:13:04.807Z,13.10
2023-05-20T04:15:45.533Z,13.20
2023-05-20T04:19:23.722Z,13.30
2023-05-20T04:22:17.564Z,13.40
2023-05-20T04:25:12.638Z,13.50
2023-05-20T04:27:59.995Z,13.70
2023-05-20T04:30:53.606Z,13.80
2023-05-20T04:33:40.715Z,13.90
2023-05-20T04:36:22.631Z,14.00
2023-05-20T04:39:10.745Z,14.10
2023-05-20T04:41:51.609Z,14.20
2023-05-20T04:44:41.733Z,14.40
2023-05-20T04:47:22.957Z,14.50
2023-05-20T04:50:13.553Z,14.50
2023-05-20T04:52:54.611Z,14.60
2023-05-20T04:55:41.753Z,14.60
2023-05-20T04:58:23.620Z,14.80
2023-05-20T05:01:10.811Z,14.80
2023-05-20T05:03:52.697Z,14.90
2023-05-20T05:09:06.646Z,15.10
2023-05-20T05:11:48.858Z,15.10
2023-05-20T05:14:36.657Z,15.30
2023-05-20T05:17:16.748Z,15.30
2023-05-20T05:20:03.646Z,15.30
2023-05-20T05:22:43.731Z,15.40
2023-05-20T05:25:31.015Z,15.50
2023-05-20T05:28:17.652Z,15.60
2023-05-20T05:31:05.571Z,15.70
2023-05-20T05:33:45.632Z,15.70
2023-05-20T05:36:33.209Z,15.80
2023-05-20T05:39:13.669Z,15.90
2023-05-20T05:42:01.018Z,16.00
2023-05-20T05:44:41.728Z,16.10
2023-05-20T05:47:32.799Z,16.10
2023-05-20T05:50:12.724Z,16.30
2023-05-20T05:52:59.766Z,16.40
2023-05-20T05:55:41.771Z,16.30
2023-05-20T05:58:29.875Z,16.30
2023-05-20T06:01:12.781Z,16.40
2023-05-20T06:03:53.042Z,16.50
2023-05-20T06:06:39.744Z,16.50
2023-05-20T06:09:26.848Z,16.50
2023-05-20T06:12:07.975Z,16.50
2023-05-20T06:14:54.786Z,16.60
2023-05-20T06:17:34.676Z,16.70
2023-05-20T06:20:21.884Z,16.80
2023-05-20T06:23:01.733Z,16.80
2023-05-20T06:25:59.814Z,16.90
2023-05-20T06:28:39.805Z,17.00
2023-05-20T06:31:33.775Z,17.10
2023-05-20T06:34:20.943Z,17.20
2023-05-20T06:37:00.809Z,17.20
2023-05-20T06:39:51.687Z,17.30
2023-05-20T06:42:31.815Z,17.30
2023-05-20T06:45:20.473Z,17.40
2023-05-20T06:48:03.832Z,17.40
2023-05-20T06:50:51.889Z,17.50
2023-05-20T06:53:31.765Z,17.60
2023-05-20T06:56:18.897Z,17.80
2023-05-20T06:58:58.722Z,18.10
2023-05-20T07:01:41.315Z,18.30
2023-05-20T07:04:27.757Z,18.50
2023-05-20T07:07:17.194Z,18.90
2023-05-20T07:09:56.948Z,19.10
2023-05-20T07:12:44.857Z,19.30
2023-05-20T07:15:24.895Z,19.40
2023-05-20T07:18:12.846Z,19.60
2023-05-20T07:20:58.865Z,19.80
2023-05-20T07:24:08.781Z,20.00
2023-05-20T07:26:49.037Z,20.20
2023-05-20T07:29:35.769Z,20.40
2023-05-20T07:32:24.083Z,20.70
2023-05-20T07:35:03.970Z,21.20
2023-05-20T07:37:51.102Z,21.70
2023-05-20T07:40:30.792Z,22.00
2023-05-20T07:43:17.966Z,22.20
2023-05-20T07:45:57.871Z,22.10
2023-05-20T07:48:45.401Z,22.20
2023-05-20T07:51:25.806Z,22.90
2023-05-20T07:54:15.536Z,24.00
2023-05-20T07:56:58.843Z,24.30
2023-05-20T07:59:45.836Z,24.20
2023-05-20T08:02:27.155Z,23.40
2023-05-20T08:05:13.792Z,23.10
2023-05-20T08:07:54.067Z,23.20
2023-05-20T08:10:43.904Z,23.20
2023-05-20T08:13:24.020Z,23.20
2023-05-20T08:16:12.841Z,23.10
2023-05-20T08:18:53.072Z,23.10
2023-05-20T08:21:39.933Z,22.90
2023-05-20T08:24:19.935Z,22.60
2023-05-20T08:27:06.997Z,22.50
2023-05-20T08:29:46.962Z,22.70
2023-05-20T08:32:33.864Z,22.80
2023-05-20T08:35:14.037Z,22.70
2023-05-20T08:38:01.865Z,22.70
2023-05-20T08:40:42.034Z,23.00
2023-05-20T08:43:29.850Z,23.30
2023-05-20T08:46:18.323Z,23.50
2023-05-20T08:49:00.877Z,23.30
2023-05-20T08:51:48.402Z,23.20
2023-05-20T08:54:30.899Z,23.40
2023-05-20T08:57:20.651Z,23.80
2023-05-20T09:00:00.912Z,24.30
2023-05-20T09:02:48.016Z,25.20
2023-05-20T09:05:28.961Z,25.80
2023-05-20T09:08:17.003Z,25.80
2023-05-20T09:10:58.980Z,26.00
2023-05-20T09:13:52.939Z,26.40
2023-05-20T09:16:40.104Z,26.90
2023-05-20T09:19:21.289Z,27.30
2023-05-20T09:22:03.958Z,27.30
2023-05-20T09:24:50.903Z,27.50
2023-05-20T09:27:39.075Z,27.70
2023-05-20T09:30:20.899Z,28.10
2023-05-20T09:33:09.524Z,28.20
2023-05-20T09:35:49.067Z,28.40
2023-05-20T09:38:38.247Z,29.10
2023-05-20T09:41:19.041Z,29.40
2023-05-20T09:44:06.986Z,30.40
2023-05-20T09:46:47.978Z,30.70
2023-05-20T09:49:29.008Z,30.30
2023-05-20T09:52:17.651Z,30.40
2023-05-20T09:54:59.206Z,30.90
2023-05-20T10:00:33.192Z,31.70
2023-05-20T10:03:13.135Z,32.40
2023-05-20T10:06:03.193Z,33.00
2023-05-20T10:09:01.992Z,33.20
2023-05-20T10:11:49.102Z,33.10
2023-05-20T10:14:43.957Z,33.40
2023-05-20T10:17:24.420Z,33.60
2023-05-20T10:20:14.367Z,33.90
2023-05-20T10:23:00.882Z,33.80
2023-05-20T10:25:48.047Z,33.70
2023-05-20T10:28:45.979Z,33.30
2023-05-20T10:31:35.458Z,32.30
2023-05-20T10:34:20.992Z,32.30
2023-05-20T10:37:08.093Z,32.40
2023-05-20T10:39:48.091Z,32.30
2023-05-20T10:42:35.267Z,32.40
2023-05-20T10:45:16.105Z,32.60
2023-05-20T10:47:57.548Z,32.90
2023-05-20T10:50:51.188Z,32.60
2023-05-20T10:53:45.220Z,32.30
2023-05-20T10:56:26.045Z,32.40
2023-05-20T10:59:20.043Z,32.60
2023-05-20T11:02:02.547Z,32.80
2023-05-20T11:04:49.077Z,32.60
2023-05-20T11:07:37.274Z,32.40
2023-05-20T11:10:18.053Z,32.00
2023-05-20T11:13:05.295Z,31.50
2023-05-20T11:15:45.075Z,31.20
2023-05-20T11:18:35.239Z,30.60
2023-05-20T11:21:15.171Z,30.50
2023-05-20T11:24:02.250Z,30.70
2023-05-20T11:26:43.089Z,30.40
2023-05-20T11:29:32.351Z,30.30
2023-05-20T11:32:19.199Z,30.30
2023-05-20T11:34:59.174Z,30.40
2023-05-20T11:37:46.114Z,30.50
2023-05-20T11:40:38.923Z,30.90
2023-05-20T11:43:30.098Z,30.40
2023-05-20T11:46:18.229Z,30.10
2023-05-20T11:49:08.656Z,30.00
2023-05-20T11:51:56.114Z,30.20
2023-05-20T11:54:36.613Z,29.90
2023-05-20T11:57:25.216Z,29.80
2023-05-20T12:00:13.258Z,29.60
2023-05-20T12:02:54.177Z,29.50
2023-05-20T12:05:41.288Z,29.70
2023-05-20T12:08:21.117Z,29.40
2023-05-20T12:11:08.302Z,29.20
2023-05-20T12:13:48.113Z,29.30
2023-05-20T12:16:35.440Z,29.10
2023-05-20T12:19:16.219Z,29.40
2023-05-20T12:22:03.264Z,29.10
2023-05-20T12:24:43.165Z,28.40
2023-05-20T12:27:30.989Z,27.30
2023-05-20T12:30:12.163Z,26.60
2023-05-20T12:32:59.397Z,25.90
2023-05-20T12:35:49.272Z,25.40
2023-05-20T12:38:43.278Z,24.90
2023-05-20T12:41:30.282Z,24.60
2023-05-20T12:44:10.345Z,24.40
2023-05-20T12:46:57.343Z,23.90
2023-05-20T12:49:37.204Z,23.70
2023-05-20T12:52:22.413Z,23.60
2023-05-20T12:55:10.206Z,23.50
2023-05-20T12:57:57.369Z,23.20
2023-05-20T13:00:38.298Z,23.10
2023-05-20T13:03:25.390Z,22.90
2023-05-20T13:06:06.362Z,22.70
2023-05-20T13:08:46.578Z,22.60
2023-05-20T13:11:33.199Z,22.50
2023-05-20T13:14:21.753Z,22.40
2023-05-20T13:17:02.257Z,22.20
2023-05-20T13:19:49.411Z,22.10
2023-05-20T13:22:29.285Z,21.90
2023-05-20T13:25:16.360Z,21.80
2023-05-20T13:27:56.241Z,21.70
2023-05-20T13:30:43.385Z,21.70
2023-05-20T13:33:31.298Z,21.60
2023-05-20T13:36:11.381Z,21.50
2023-05-20T13:38:58.243Z,21.40
2023-05-20T13:41:39.357Z,21.30
2023-05-20T13:44:26.209Z,21.40
2023-05-20T13:47:06.413Z,21.30
2023-05-20T13:49:53.370Z,21.30
2023-05-20T13:52:40.338Z,21.20
2023-05-20T13:55:27.393Z,21.10
2023-05-20T13:58:07.263Z,21.20
2023-05-20T14:00:54.650Z,21.10
2023-05-20T14:03:34.349Z,21.00
2023-05-20T14:06:21.476Z,21.00
2023-05-20T14:09:03.361Z,21.00
2023-05-20T14:11:51.477Z,20.80
2023-05-20T14:14:31.382Z,20.70
2023-05-20T14:17:18.719Z,20.50
2023-05-20T14:19:58.429Z,20.40
2023-05-20T14:22:45.538Z,20.40
2023-05-20T14:25:25.353Z,20.30
2023-05-20T14:28:12.453Z,20.40
2023-05-20T14:30:52.311Z,20.50
2023-05-20T14:33:39.536Z,20.40
2023-05-20T14:36:19.271Z,20.40
2023-05-20T14:39:06.561Z,20.50
2023-05-20T14:41:46.374Z,20.50
2023-05-20T14:44:33.421Z,20.50
2023-05-20T14:47:13.331Z,20.40
2023-05-20T14:49:53.572Z,20.40
2023-05-20T14:52:40.344Z,20.40
2023-05-20T14:55:27.511Z,20.30
2023-05-20T14:58:07.357Z,20.30
2023-05-20T15:01:01.414Z,20.30
2023-05-20T15:03:48.519Z,20.30
2023-05-20T15:06:28.409Z,20.30
2023-05-20T15:09:15.465Z,20.30
2023-05-20T15:11:55.413Z,20.30
2023-05-20T15:14:42.462Z,20.30
2023-05-20T15:17:23.496Z,20.20
2023-05-20T15:20:10.456Z,20.20
2023-05-20T15:22:54.345Z,20.10
2023-05-20T15:25:34.776Z,20.00
2023-05-20T15:28:21.466Z,20.00
2023-05-20T15:31:08.474Z,20.00
2023-05-20T15:33:55.528Z,20.10
2023-05-20T15:36:35.676Z,20.10
2023-05-20T15:39:22.378Z,20.00
2023-05-20T15:42:03.407Z,19.90
2023-05-20T15:44:51.470Z,19.90
2023-05-20T15:47:31.521Z,19.80
2023-05-20T15:50:18.434Z,19.80
2023-05-20T15:52:58.668Z,19.80
2023-05-20T15:55:45.376Z,19.80
2023-05-20T15:58:25.660Z,19.80
2023-05-20T16:01:13.430Z,19.80
2023-05-20T16:03:56.874Z,19.80
2023-05-20T16:06:44.514Z,19.80
2023-05-20T16:09:31.437Z,19.80
2023-05-20T16:12:18.641Z,19.90
2023-05-20T16:14:58.502Z,19.90
2023-05-20T16:17:45.592Z,19.90
2023-05-20T16:20:25.454Z,19.90
2023-05-20T16:23:12.616Z,19.80
2023-05-20T16:28:54.509Z,19.80
2023-05-20T16:31:48.532Z,19.80
2023-05-20T16:34:35.570Z,19.80
2023-05-20T16:37:16.505Z,19.80
2023-05-20T16:40:04.321Z,19.70
2023-05-20T16:42:46.616Z,19.70
2023-05-20T16:45:33.656Z,19.80
2023-05-20T16:48:20.562Z,19.80
2023-05-20T16:51:00.868Z,19.80
2023-05-20T16:53:47.539Z,19.80
2023-05-20T16:56:35.579Z,19.80
2023-05-20T16:59:24.941Z,19.80
2023-05-20T17:02:04.546Z,19.70
2023-05-20T17:04:51.961Z,19.70
2023-05-20T17:07:31.551Z,19.70
2023-05-20T17:10:18.599Z,19.60
2023-05-20T17:12:58.494Z,19.60
2023-05-20T17:15:45.709Z,19.60
2023-05-20T17:18:25.582Z,19.60
2023-05-20T17:21:14.439Z,19.60
2023-05-20T17:23:55.596Z,19.60
2023-05-20T17:26:42.662Z,19.50
2023-05-20T17:29:22.572Z,19.60
2023-05-20T17:32:16.517Z,19.50
2023-05-20T17:35:03.612Z,19.50
2023-05-20T17:37:43.628Z,19.40
2023-05-20T17:40:30.618Z,19.30
2023-05-20T17:43:10.642Z,19.30
2023-05-20T17:45:57.546Z,19.30
2023-05-20T17:48:37.666Z,19.30
2023-05-20T17:51:24.591Z,19.20
2023-05-20T17:54:04.677Z,19.20
2023-05-20T17:56:54.665Z,19.20
2023-05-20T17:59:43.544Z,19.20
2023-05-20T18:02:30.749Z,19.10
2023-05-20T18:05:11.649Z,19.10
2023-05-20T18:07:58.687Z,19.10
2023-05-20T18:10:38.587Z,19.00
2023-05-20T18:13:25.850Z,19.00
2023-05-20T18:16:05.724Z,19.00
2023-05-20T18:18:52.665Z,18.90
2023-05-20T18:21:32.650Z,18.90
2023-05-20T18:24:20.632Z,18.80
2023-05-20T18:27:00.607Z,18.80
2023-05-20T18:29:47.933Z,18.80
2023-05-20T18:32:35.618Z,18.70
2023-05-20T18:35:15.849Z,18.60
2023-05-20T18:38:02.652Z,18.60
2023-05-20T18:40:42.677Z,18.50
2023-05-20T18:43:29.604Z,18.40
2023-05-20T18:46:09.768Z,18.40
2023-05-20T18:48:56.600Z,18.30
2023-05-20T18:51:36.804Z,18.30
2023-05-20T18:54:23.617Z,18.20
2023-05-20T18:57:05.087Z,18.20
2023-05-20T18:59:51.622Z,18.20
2023-05-20T19:02:38.759Z,18.20
2023-05-20T19:05:26.105Z,18.10
2023-05-20T19:08:06.619Z,18.10
2023-05-20T19:10:53.771Z,18.00
2023-05-20T19:13:33.788Z,18.00
2023-05-20T19:16:20.746Z,17.90
2023-05-20T19:19:00.677Z,17.90
2023-05-20T19:21:48.294Z,17.90
2023-05-20T19:24:27.696Z,17.90
2023-05-20T19:27:14.768Z,17.80
2023-05-20T19:29:54.643Z,17.80
2023-05-20T19:32:48.777Z,17.70
2023-05-20T19:35:36.988Z,17.60
2023-05-20T19:38:17.031Z,17.60
2023-05-20T19:41:05.040Z,17.50
2023-05-20T19:43:44.936Z,17.50
2023-05-20T19:46:31.780Z,17.40
2023-05-20T19:49:18.682Z,17.40
2023-05-20T19:52:05.815Z,17.40
2023-05-20T19:54:46.159Z,17.30
2023-05-20T19:57:32.684Z,17.40
2023-05-20T20:00:13.852Z,17.40
2023-05-20T20:03:00.945Z,17.40
2023-05-20T20:05:47.802Z,17.30
2023-05-20T20:08:34.806Z,17.30
2023-05-20T20:11:15.788Z,17.20
2023-05-20T20:14:02.928Z,17.20
2023-05-20T20:16:43.813Z,17.20
2023-05-20T20:19:30.917Z,17.20
2023-05-20T20:22:10.706Z,17.20
2023-05-20T20:24:50.974Z,17.20
2023-05-20T20:31:06.809Z,17.20
2023-05-20T20:33:53.810Z,17.20
2023-05-20T20:36:34.975Z,17.10
2023-05-20T20:39:25.867Z,17.10
2023-05-20T20:42:06.711Z,17.10
2023-05-20T20:44:55.829Z,17.10
2023-05-20T20:47:38.796Z,17.00
2023-05-20T20:50:25.834Z,17.00
2023-05-20T20:53:12.826Z,16.90
2023-05-20T20:55:59.915Z,16.90
2023-05-20T20:58:41.780Z,16.90
2023-05-20T21:01:22.049Z,16.90
2023-05-20T21:04:08.808Z,16.90
2023-05-20T21:06:56.015Z,16.80
2023-05-20T21:09:35.798Z,16.70
2023-05-20T21:12:16.132Z,16.70
2023-05-20T21:15:02.842Z,16.70
2023-05-20T21:17:43.046Z,16.80
2023-05-20T21:20:29.900Z,16.80
2023-05-20T21:23:17.034Z,16.80
2023-05-20T21:25:57.185Z,16.70
2023-05-20T21:28:43.944Z,16.70
2023-05-20T21:31:23.841Z,16.70
2023-05-20T21:34:17.884Z,16.60
2023-05-20T21:37:04.886Z,16.60
2023-05-20T21:39:44.898Z,16.60
2023-05-20T21:42:31.923Z,16.60
2023-05-20T21:45:12.139Z,16.50
2023-05-20T21:47:58.854Z,16.50
2023-05-20T21:50:39.025Z,16.50
2023-05-20T21:53:25.801Z,16.40
2023-05-20T21:56:12.845Z,16.40
2023-05-20T21:58:59.964Z,16.40
2023-05-20T22:01:39.922Z,16.40
2023-05-20T22:04:28.779Z,16.40
2023-05-20T22:07:08.895Z,16.40
2023-05-20T22:09:55.991Z,16.20
2023-05-20T22:12:35.910Z,16.10
2023-05-20T22:15:23.224Z,16.00
2023-05-20T22:18:06.788Z,15.90
2023-05-20T22:20:55.070Z,15.90
2023-05-20T22:23:34.850Z,15.90
2023-05-20T22:26:22.293Z,15.90
2023-05-20T22:29:01.892Z,15.90
2023-05-20T22:31:49.074Z,15.90
2023-05-20T22:34:35.886Z,16.00
2023-05-20T22:37:23.079Z,16.00
2023-05-20T22:40:03.906Z,16.00
2023-05-20T22:42:44.314Z,16.00
2023-05-20T22:45:31.003Z,16.00
2023-05-20T22:48:11.280Z,15.90
2023-05-20T22:50:57.977Z,15.80
2023-05-20T22:53:52.033Z,15.80
2023-05-20T22:56:39.718Z,15.80
2023-05-20T22:59:19.962Z,15.80
2023-05-20T23:02:02.413Z,15.80
2023-05-20T23:04:49.061Z,15.80
2023-05-20T23:07:36.298Z,15.80
2023-05-20T23:10:15.897Z,15.80
2023-05-20T23:13:03.096Z,15.80
2023-05-20T23:15:43.272Z,15.80
2023-05-20T23:18:30.575Z,15.80
2023-05-20T23:21:10.935Z,15.80
2023-05-20T23:23:58.023Z,15.70
2023-05-20T23:26:42.033Z,15.70
2023-05-20T23:29:22.374Z,15.70
2023-05-20T23:32:09.300Z,15.60
2023-05-20T23:34:56.055Z,15.60
2023-05-20T23:37:35.934Z,15.60
2023-05-20T23:40:23.035Z,15.50
2023-05-20T23:43:03.005Z,15.50
2023-05-20T23:45:50.141Z,15.40
2023-05-20T23:48:33.020Z,15.40
2023-05-20T23:51:20.133Z,15.30
2023-05-20T23:54:00.966Z,15.20
2023-05-20T23:56:48.719Z,15.20
2023-05-20T23:59:28.955Z,15.10
